sensor_id;sensor_type;location;lat;lon;timestamp;temperature;humidity
11538;DHT22;50159;49.426;11.182;2022-08-05T00:02:20;23.00;59.00
11538;DHT22;50159;49.426;11.182;2022-08-05T00:04:47;23.00;59.10
11538;DHT22;50159;49.426;11.182;2022-08-05T00:07:22;23.00;59.20
11538;DHT22;50159;49.426;11.182;2022-08-05T00:10:10;22.90;59.90
11538;DHT22;50159;49.426;11.182;2022-08-05T00:12:37;22.90;59.40
11538;DHT22;50159;49.426;11.182;2022-08-05T00:15:22;22.90;59.50
11538;DHT22;50159;49.426;11.182;2022-08-05T00:18:10;22.80;59.80
11538;DHT22;50159;49.426;11.182;2022-08-05T00:20:49;22.80;59.90
11538;DHT22;50159;49.426;11.182;2022-08-05T00:23:17;22.70;60.00
11538;DHT22;50159;49.426;11.182;2022-08-05T00:26:05;22.80;60.50
11538;DHT22;50159;49.426;11.182;2022-08-05T00:28:33;22.70;60.50
11538;DHT22;50159;49.426;11.182;2022-08-05T00:31:01;22.70;60.60
11538;DHT22;50159;49.426;11.182;2022-08-05T00:33:30;22.70;60.90
11538;DHT22;50159;49.426;11.182;2022-08-05T00:36:18;22.60;61.10
11538;DHT22;50159;49.426;11.182;2022-08-05T00:39:05;22.60;61.30
11538;DHT22;50159;49.426;11.182;2022-08-05T00:41:43;22.50;61.20
11538;DHT22;50159;49.426;11.182;2022-08-05T00:44:21;22.50;61.50
11538;DHT22;50159;49.426;11.182;2022-08-05T00:46:57;22.50;61.80
11538;DHT22;50159;49.426;11.182;2022-08-05T00:49:30;22.40;61.90
11538;DHT22;50159;49.426;11.182;2022-08-05T00:52:10;22.40;62.10
11538;DHT22;50159;49.426;11.182;2022-08-05T00:54:37;22.40;62.50
11538;DHT22;50159;49.426;11.182;2022-08-05T00:57:04;22.40;62.70
11538;DHT22;50159;49.426;11.182;2022-08-05T00:59:31;22.30;62.80
11538;DHT22;50159;49.426;11.182;2022-08-05T01:02:07;22.30;63.10
11538;DHT22;50159;49.426;11.182;2022-08-05T01:04:38;22.30;63.50
11538;DHT22;50159;49.426;11.182;2022-08-05T01:07:07;22.30;63.60
11538;DHT22;50159;49.426;11.182;2022-08-05T01:09:40;22.20;64.50
11538;DHT22;50159;49.426;11.182;2022-08-05T01:12:10;22.20;64.10
11538;DHT22;50159;49.426;11.182;2022-08-05T01:15:02;22.20;64.40
11538;DHT22;50159;49.426;11.182;2022-08-05T01:17:55;22.10;64.40
11538;DHT22;50159;49.426;11.182;2022-08-05T01:24:09;22.10;65.20
11538;DHT22;50159;49.426;11.182;2022-08-05T01:27:00;22.10;65.30
11538;DHT22;50159;49.426;11.182;2022-08-05T01:29:49;22.00;65.80
11538;DHT22;50159;49.426;11.182;2022-08-05T01:32:23;22.00;67.10
11538;DHT22;50159;49.426;11.182;2022-08-05T01:34:59;22.00;65.60
11538;DHT22;50159;49.426;11.182;2022-08-05T01:40:14;22.00;66.20
11538;DHT22;50159;49.426;11.182;2022-08-05T01:42:45;22.00;67.50
11538;DHT22;50159;49.426;11.182;2022-08-05T01:45:15;21.90;68.00
11538;DHT22;50159;49.426;11.182;2022-08-05T01:47:45;21.90;67.30
11538;DHT22;50159;49.426;11.182;2022-08-05T01:50:25;21.90;67.10
11538;DHT22;50159;49.426;11.182;2022-08-05T01:52:59;21.90;68.70
11538;DHT22;50159;49.426;11.182;2022-08-05T01:55:31;21.90;67.70
11538;DHT22;50159;49.426;11.182;2022-08-05T01:58:04;21.90;67.70
11538;DHT22;50159;49.426;11.182;2022-08-05T02:00:44;21.80;69.60
11538;DHT22;50159;49.426;11.182;2022-08-05T02:03:22;21.80;74.20
11538;DHT22;50159;49.426;11.182;2022-08-05T02:05:59;21.80;73.10
11538;DHT22;50159;49.426;11.182;2022-08-05T02:08:47;21.80;70.70
11538;DHT22;50159;49.426;11.182;2022-08-05T02:11:24;21.70;70.70
11538;DHT22;50159;49.426;11.182;2022-08-05T02:14:26;21.70;71.50
11538;DHT22;50159;49.426;11.182;2022-08-05T02:19:59;21.70;68.80
11538;DHT22;50159;49.426;11.182;2022-08-05T02:22:49;21.70;69.70
11538;DHT22;50159;49.426;11.182;2022-08-05T02:25:26;21.60;70.50
11538;DHT22;50159;49.426;11.182;2022-08-05T02:28:06;21.60;70.10
11538;DHT22;50159;49.426;11.182;2022-08-05T02:30:48;21.60;70.60
11538;DHT22;50159;49.426;11.182;2022-08-05T02:33:22;21.60;70.90
11538;DHT22;50159;49.426;11.182;2022-08-05T02:36:06;21.60;71.30
11538;DHT22;50159;49.426;11.182;2022-08-05T02:38:47;21.60;71.70
11538;DHT22;50159;49.426;11.182;2022-08-05T02:41:21;21.60;72.10
11538;DHT22;50159;49.426;11.182;2022-08-05T02:44:09;21.50;72.40
11538;DHT22;50159;49.426;11.182;2022-08-05T02:46:44;21.50;72.70
11538;DHT22;50159;49.426;11.182;2022-08-05T02:49:30;21.50;72.80
11538;DHT22;50159;49.426;11.182;2022-08-05T02:52:09;21.50;73.10
11538;DHT22;50159;49.426;11.182;2022-08-05T02:54:57;22.00;74.80
11538;DHT22;50159;49.426;11.182;2022-08-05T02:57:31;21.40;74.20
11538;DHT22;50159;49.426;11.182;2022-08-05T03:00:19;21.40;74.80
11538;DHT22;50159;49.426;11.182;2022-08-05T03:02:46;21.40;74.80
11538;DHT22;50159;49.426;11.182;2022-08-05T03:05:14;21.40;75.20
11538;DHT22;50159;49.426;11.182;2022-08-05T03:07:48;21.40;75.60
11538;DHT22;50159;49.426;11.182;2022-08-05T03:10:34;21.40;76.10
11538;DHT22;50159;49.426;11.182;2022-08-05T03:13:01;21.40;76.60
11538;DHT22;50159;49.426;11.182;2022-08-05T03:15:43;21.40;77.00
11538;DHT22;50159;49.426;11.182;2022-08-05T03:18:11;21.40;77.40
11538;DHT22;50159;49.426;11.182;2022-08-05T03:20:43;21.40;77.60
11538;DHT22;50159;49.426;11.182;2022-08-05T03:23:14;21.40;78.10
11538;DHT22;50159;49.426;11.182;2022-08-05T03:25:42;21.40;78.60
11538;DHT22;50159;49.426;11.182;2022-08-05T03:28:29;21.30;78.90
11538;DHT22;50159;49.426;11.182;2022-08-05T03:30:59;21.30;79.40
11538;DHT22;50159;49.426;11.182;2022-08-05T03:33:29;21.30;80.00
11538;DHT22;50159;49.426;11.182;2022-08-05T03:36:16;21.30;80.70
11538;DHT22;50159;49.426;11.182;2022-08-05T03:38:56;21.30;81.10
11538;DHT22;50159;49.426;11.182;2022-08-05T03:41:23;21.40;80.40
11538;DHT22;50159;49.426;11.182;2022-08-05T03:43:50;21.50;79.40
11538;DHT22;50159;49.426;11.182;2022-08-05T03:46:36;21.60;78.70
11538;DHT22;50159;49.426;11.182;2022-08-05T03:49:03;21.80;77.60
11538;DHT22;50159;49.426;11.182;2022-08-05T03:51:35;21.90;77.00
11538;DHT22;50159;49.426;11.182;2022-08-05T03:57:30;22.10;76.00
11538;DHT22;50159;49.426;11.182;2022-08-05T04:00:10;22.10;75.90
11538;DHT22;50159;49.426;11.182;2022-08-05T04:02:44;22.20;76.00
11538;DHT22;50159;49.426;11.182;2022-08-05T04:05:27;22.10;75.80
11538;DHT22;50159;49.426;11.182;2022-08-05T04:08:05;22.10;76.00
11538;DHT22;50159;49.426;11.182;2022-08-05T04:10:54;22.10;76.50
11538;DHT22;50159;49.426;11.182;2022-08-05T04:13:23;22.10;77.00
11538;DHT22;50159;49.426;11.182;2022-08-05T04:15:53;22.00;77.20
11538;DHT22;50159;49.426;11.182;2022-08-05T04:18:30;22.00;77.80
11538;DHT22;50159;49.426;11.182;2022-08-05T04:21:00;21.90;78.30
11538;DHT22;50159;49.426;11.182;2022-08-05T04:23:30;21.90;78.80
11538;DHT22;50159;49.426;11.182;2022-08-05T04:26:17;21.80;79.20
11538;DHT22;50159;49.426;11.182;2022-08-05T04:28:44;21.80;79.90
11538;DHT22;50159;49.426;11.182;2022-08-05T04:31:18;21.80;80.30
11538;DHT22;50159;49.426;11.182;2022-08-05T04:33:45;21.80;80.60
11538;DHT22;50159;49.426;11.182;2022-08-05T04:36:33;21.80;81.00
11538;DHT22;50159;49.426;11.182;2022-08-05T04:39:11;21.80;81.10
11538;DHT22;50159;49.426;11.182;2022-08-05T04:41:39;21.80;81.20
11538;DHT22;50159;49.426;11.182;2022-08-05T04:44:06;21.80;81.60
11538;DHT22;50159;49.426;11.182;2022-08-05T04:46:36;21.90;82.00
11538;DHT22;50159;49.426;11.182;2022-08-05T04:49:07;21.90;82.00
11538;DHT22;50159;49.426;11.182;2022-08-05T04:51:41;22.00;81.90
11538;DHT22;50159;49.426;11.182;2022-08-05T04:54:09;22.00;82.30
11538;DHT22;50159;49.426;11.182;2022-08-05T04:56:38;22.10;82.80
11538;DHT22;50159;49.426;11.182;2022-08-05T04:59:05;22.10;82.80
11538;DHT22;50159;49.426;11.182;2022-08-05T05:01:52;22.20;83.10
11538;DHT22;50159;49.426;11.182;2022-08-05T05:04:39;22.20;83.00
11538;DHT22;50159;49.426;11.182;2022-08-05T05:07:09;22.20;82.80
11538;DHT22;50159;49.426;11.182;2022-08-05T05:09:41;22.30;82.70
11538;DHT22;50159;49.426;11.182;2022-08-05T05:12:10;22.40;82.70
11538;DHT22;50159;49.426;11.182;2022-08-05T05:14:37;22.40;82.70
11538;DHT22;50159;49.426;11.182;2022-08-05T05:17:15;22.50;83.10
11538;DHT22;50159;49.426;11.182;2022-08-05T05:19:48;22.50;83.50
11538;DHT22;50159;49.426;11.182;2022-08-05T05:22:15;22.50;83.90
11538;DHT22;50159;49.426;11.182;2022-08-05T05:24:52;22.50;84.10
11538;DHT22;50159;49.426;11.182;2022-08-05T05:27:29;22.50;84.20
11538;DHT22;50159;49.426;11.182;2022-08-05T05:30:14;22.60;84.40
11538;DHT22;50159;49.426;11.182;2022-08-05T05:32:58;22.60;84.70
11538;DHT22;50159;49.426;11.182;2022-08-05T05:35:30;22.60;84.60
11538;DHT22;50159;49.426;11.182;2022-08-05T05:38:05;22.60;83.60
11538;DHT22;50159;49.426;11.182;2022-08-05T05:40:38;22.60;83.10
11538;DHT22;50159;49.426;11.182;2022-08-05T05:43:15;22.70;82.90
11538;DHT22;50159;49.426;11.182;2022-08-05T05:45:53;22.70;82.00
11538;DHT22;50159;49.426;11.182;2022-08-05T05:48:20;22.70;81.30
11538;DHT22;50159;49.426;11.182;2022-08-05T05:50:53;22.80;80.60
11538;DHT22;50159;49.426;11.182;2022-08-05T05:53:20;22.80;79.70
11538;DHT22;50159;49.426;11.182;2022-08-05T05:55:49;22.80;78.50
11538;DHT22;50159;49.426;11.182;2022-08-05T05:58:27;22.90;78.00
11538;DHT22;50159;49.426;11.182;2022-08-05T06:00:59;23.00;75.70
11538;DHT22;50159;49.426;11.182;2022-08-05T06:03:42;23.10;73.60
11538;DHT22;50159;49.426;11.182;2022-08-05T06:06:27;23.30;71.40
11538;DHT22;50159;49.426;11.182;2022-08-05T06:08:57;23.50;69.10
11538;DHT22;50159;49.426;11.182;2022-08-05T06:11:24;23.70;68.50
11538;DHT22;50159;49.426;11.182;2022-08-05T06:13:51;23.90;67.60
11538;DHT22;50159;49.426;11.182;2022-08-05T06:16:21;24.10;67.00
11538;DHT22;50159;49.426;11.182;2022-08-05T06:18:58;24.30;66.60
11538;DHT22;50159;49.426;11.182;2022-08-05T06:21:28;24.50;64.90
11538;DHT22;50159;49.426;11.182;2022-08-05T06:24:07;24.80;64.00
11538;DHT22;50159;49.426;11.182;2022-08-05T06:26:40;25.10;62.80
11538;DHT22;50159;49.426;11.182;2022-08-05T06:29:19;25.40;62.20
11538;DHT22;50159;49.426;11.182;2022-08-05T06:32:07;25.50;60.80
11538;DHT22;50159;49.426;11.182;2022-08-05T06:34:54;25.40;59.90
11538;DHT22;50159;49.426;11.182;2022-08-05T06:37:24;25.30;60.40
11538;DHT22;50159;49.426;11.182;2022-08-05T06:40:13;25.20;60.70
11538;DHT22;50159;49.426;11.182;2022-08-05T06:42:47;25.00;60.90
11538;DHT22;50159;49.426;11.182;2022-08-05T06:45:19;25.00;62.00
11538;DHT22;50159;49.426;11.182;2022-08-05T06:48:07;24.90;62.40
11538;DHT22;50159;49.426;11.182;2022-08-05T06:50:54;24.90;62.60
11538;DHT22;50159;49.426;11.182;2022-08-05T06:53:21;24.90;63.20
11538;DHT22;50159;49.426;11.182;2022-08-05T06:55:58;24.90;63.20
11538;DHT22;50159;49.426;11.182;2022-08-05T06:58:26;24.90;63.60
11538;DHT22;50159;49.426;11.182;2022-08-05T07:01:04;24.90;64.20
11538;DHT22;50159;49.426;11.182;2022-08-05T07:03:32;24.90;64.50
11538;DHT22;50159;49.426;11.182;2022-08-05T07:06:01;24.90;65.00
11538;DHT22;50159;49.426;11.182;2022-08-05T07:08:43;24.90;65.40
11538;DHT22;50159;49.426;11.182;2022-08-05T07:11:13;24.90;65.40
11538;DHT22;50159;49.426;11.182;2022-08-05T07:13:51;24.90;65.80
11538;DHT22;50159;49.426;11.182;2022-08-05T07:16:47;24.90;66.10
11538;DHT22;50159;49.426;11.182;2022-08-05T07:19:35;24.90;66.50
11538;DHT22;50159;49.426;11.182;2022-08-05T07:22:22;25.00;66.50
11538;DHT22;50159;49.426;11.182;2022-08-05T07:25:01;25.30;66.20
11538;DHT22;50159;49.426;11.182;2022-08-05T07:27:50;25.40;65.50
11538;DHT22;50159;49.426;11.182;2022-08-05T07:30:34;25.60;65.00
11538;DHT22;50159;49.426;11.182;2022-08-05T07:33:09;25.70;64.70
11538;DHT22;50159;49.426;11.182;2022-08-05T07:35:43;25.90;64.60
11538;DHT22;50159;49.426;11.182;2022-08-05T07:38:32;26.00;64.10
11538;DHT22;50159;49.426;11.182;2022-08-05T07:41:16;26.00;64.40
11538;DHT22;50159;49.426;11.182;2022-08-05T07:44:08;26.10;63.80
11538;DHT22;50159;49.426;11.182;2022-08-05T07:46:44;26.30;63.20
11538;DHT22;50159;49.426;11.182;2022-08-05T07:49:15;26.60;62.90
11538;DHT22;50159;49.426;11.182;2022-08-05T07:51:44;26.90;61.90
11538;DHT22;50159;49.426;11.182;2022-08-05T07:54:23;27.10;60.80
11538;DHT22;50159;49.426;11.182;2022-08-05T07:57:02;27.30;59.30
11538;DHT22;50159;49.426;11.182;2022-08-05T07:59:50;27.50;58.90
11538;DHT22;50159;49.426;11.182;2022-08-05T08:02:22;27.70;57.70
11538;DHT22;50159;49.426;11.182;2022-08-05T08:04:56;27.80;56.80
11538;DHT22;50159;49.426;11.182;2022-08-05T08:07:24;28.00;56.30
11538;DHT22;50159;49.426;11.182;2022-08-05T08:09:54;28.20;55.50
11538;DHT22;50159;49.426;11.182;2022-08-05T08:12:22;28.30;54.80
11538;DHT22;50159;49.426;11.182;2022-08-05T08:15:07;28.30;54.40
11538;DHT22;50159;49.426;11.182;2022-08-05T08:17:42;28.10;54.80
11538;DHT22;50159;49.426;11.182;2022-08-05T08:20:22;28.10;55.70
11538;DHT22;50159;49.426;11.182;2022-08-05T08:23:10;28.20;55.00
11538;DHT22;50159;49.426;11.182;2022-08-05T08:25:57;28.10;54.90
11538;DHT22;50159;49.426;11.182;2022-08-05T08:28:28;28.10;54.80
11538;DHT22;50159;49.426;11.182;2022-08-05T08:31:16;28.00;54.90
11538;DHT22;50159;49.426;11.182;2022-08-05T08:33:45;27.90;55.30
11538;DHT22;50159;49.426;11.182;2022-08-05T08:36:17;28.10;55.70
11538;DHT22;50159;49.426;11.182;2022-08-05T08:39:05;28.40;54.10
11538;DHT22;50159;49.426;11.182;2022-08-05T08:41:41;28.50;53.60
11538;DHT22;50159;49.426;11.182;2022-08-05T08:44:24;28.70;53.50
11538;DHT22;50159;49.426;11.182;2022-08-05T08:47:18;29.00;53.00
11538;DHT22;50159;49.426;11.182;2022-08-05T08:50:10;29.30;52.80
11538;DHT22;50159;49.426;11.182;2022-08-05T08:53:04;29.60;51.30
11538;DHT22;50159;49.426;11.182;2022-08-05T08:55:38;29.70;50.10
11538;DHT22;50159;49.426;11.182;2022-08-05T08:58:26;29.70;49.60
11538;DHT22;50159;49.426;11.182;2022-08-05T09:01:13;29.70;50.20
11538;DHT22;50159;49.426;11.182;2022-08-05T09:03:51;29.80;50.20
11538;DHT22;50159;49.426;11.182;2022-08-05T09:06:24;29.90;50.20
11538;DHT22;50159;49.426;11.182;2022-08-05T09:08:59;30.10;50.00
11538;DHT22;50159;49.426;11.182;2022-08-05T09:11:28;30.30;49.80
11538;DHT22;50159;49.426;11.182;2022-08-05T09:14:15;30.50;48.90
11538;DHT22;50159;49.426;11.182;2022-08-05T09:17:08;30.70;48.70
11538;DHT22;50159;49.426;11.182;2022-08-05T09:20:04;30.60;47.60
11538;DHT22;50159;49.426;11.182;2022-08-05T09:25:51;30.40;48.00
11538;DHT22;50159;49.426;11.182;2022-08-05T09:28:35;30.50;48.00
11538;DHT22;50159;49.426;11.182;2022-08-05T09:31:07;30.60;47.50
11538;DHT22;50159;49.426;11.182;2022-08-05T09:34:01;30.60;47.20
11538;DHT22;50159;49.426;11.182;2022-08-05T09:36:39;30.50;47.70
11538;DHT22;50159;49.426;11.182;2022-08-05T09:39:22;30.50;47.60
11538;DHT22;50159;49.426;11.182;2022-08-05T09:42:10;30.40;47.90
11538;DHT22;50159;49.426;11.182;2022-08-05T09:44:51;30.50;48.00
11538;DHT22;50159;49.426;11.182;2022-08-05T09:47:24;30.80;47.10
11538;DHT22;50159;49.426;11.182;2022-08-05T09:50:02;30.80;46.90
11538;DHT22;50159;49.426;11.182;2022-08-05T09:52:34;30.50;47.40
11538;DHT22;50159;49.426;11.182;2022-08-05T09:55:07;30.30;47.70
11538;DHT22;50159;49.426;11.182;2022-08-05T09:57:55;30.20;48.60
11538;DHT22;50159;49.426;11.182;2022-08-05T10:00:25;29.90;48.80
11538;DHT22;50159;49.426;11.182;2022-08-05T10:02:55;29.70;49.00
11538;DHT22;50159;49.426;11.182;2022-08-05T10:05:26;29.40;49.30
11538;DHT22;50159;49.426;11.182;2022-08-05T10:08:05;29.30;49.50
11538;DHT22;50159;49.426;11.182;2022-08-05T10:10:52;29.10;49.30
11538;DHT22;50159;49.426;11.182;2022-08-05T10:13:30;29.40;48.70
11538;DHT22;50159;49.426;11.182;2022-08-05T10:16:31;29.90;47.50
11538;DHT22;50159;49.426;11.182;2022-08-05T10:19:07;30.50;46.50
11538;DHT22;50159;49.426;11.182;2022-08-05T10:21:36;31.30;44.80
11538;DHT22;50159;49.426;11.182;2022-08-05T10:24:07;31.30;43.20
11538;DHT22;50159;49.426;11.182;2022-08-05T10:26:37;31.50;42.80
11538;DHT22;50159;49.426;11.182;2022-08-05T10:29:19;31.80;42.10
11538;DHT22;50159;49.426;11.182;2022-08-05T10:31:49;32.00;41.20
11538;DHT22;50159;49.426;11.182;2022-08-05T10:37:07;32.30;84.80
11538;DHT22;50159;49.426;11.182;2022-08-05T10:45:11;32.60;39.20
11538;DHT22;50159;49.426;11.182;2022-08-05T10:48:30;32.70;37.80
11538;DHT22;50159;49.426;11.182;2022-08-05T10:51:24;32.90;37.50
11538;DHT22;50159;49.426;11.182;2022-08-05T10:53:59;33.00;36.80
11538;DHT22;50159;49.426;11.182;2022-08-05T10:56:49;33.10;36.10
11538;DHT22;50159;49.426;11.182;2022-08-05T10:59:24;33.20;36.30
11538;DHT22;50159;49.426;11.182;2022-08-05T11:02:13;33.30;35.90
11538;DHT22;50159;49.426;11.182;2022-08-05T11:05:07;33.40;36.10
11538;DHT22;50159;49.426;11.182;2022-08-05T11:07:55;33.40;35.20
11538;DHT22;50159;49.426;11.182;2022-08-05T11:10:36;33.50;34.60
11538;DHT22;50159;49.426;11.182;2022-08-05T11:13:40;33.60;35.40
11538;DHT22;50159;49.426;11.182;2022-08-05T11:16:22;33.80;35.10
11538;DHT22;50159;49.426;11.182;2022-08-05T11:19:28;34.00;34.60
11538;DHT22;50159;49.426;11.182;2022-08-05T11:22:45;33.90;33.60
11538;DHT22;50159;49.426;11.182;2022-08-05T11:25:40;33.70;34.60
11538;DHT22;50159;49.426;11.182;2022-08-05T11:36:16;34.10;33.50
11538;DHT22;50159;49.426;11.182;2022-08-05T11:39:06;34.20;33.30
11538;DHT22;50159;49.426;11.182;2022-08-05T11:41:34;34.50;32.80
11538;DHT22;50159;49.426;11.182;2022-08-05T11:44:22;34.60;32.80
11538;DHT22;50159;49.426;11.182;2022-08-05T11:47:12;34.80;32.10
11538;DHT22;50159;49.426;11.182;2022-08-05T11:49:45;35.00;31.90
11538;DHT22;50159;49.426;11.182;2022-08-05T11:52:27;35.00;51.00
11538;DHT22;50159;49.426;11.182;2022-08-05T11:54:56;35.10;34.80
11538;DHT22;50159;49.426;11.182;2022-08-05T11:57:28;35.20;33.20
11538;DHT22;50159;49.426;11.182;2022-08-05T12:00:26;35.40;31.20
11538;DHT22;50159;49.426;11.182;2022-08-05T12:02:56;35.50;30.20
11538;DHT22;50159;49.426;11.182;2022-08-05T12:05:27;35.50;29.80
11538;DHT22;50159;49.426;11.182;2022-08-05T12:08:05;35.50;29.90
11538;DHT22;50159;49.426;11.182;2022-08-05T12:10:38;35.50;29.40
11538;DHT22;50159;49.426;11.182;2022-08-05T12:13:15;35.70;29.50
11538;DHT22;50159;49.426;11.182;2022-08-05T12:16:11;35.70;29.60
11538;DHT22;50159;49.426;11.182;2022-08-05T12:18:44;35.70;29.50
11538;DHT22;50159;49.426;11.182;2022-08-05T12:21:32;36.00;29.50
11538;DHT22;50159;49.426;11.182;2022-08-05T12:24:10;35.90;29.30
11538;DHT22;50159;49.426;11.182;2022-08-05T12:26:48;35.70;30.70
11538;DHT22;50159;49.426;11.182;2022-08-05T12:29:21;35.30;33.10
11538;DHT22;50159;49.426;11.182;2022-08-05T12:31:55;34.60;32.40
11538;DHT22;50159;49.426;11.182;2022-08-05T12:34:26;34.30;32.90
11538;DHT22;50159;49.426;11.182;2022-08-05T12:36:59;34.10;32.80
11538;DHT22;50159;49.426;11.182;2022-08-05T12:39:39;34.50;32.40
11538;DHT22;50159;49.426;11.182;2022-08-05T12:42:15;34.80;31.50
11538;DHT22;50159;49.426;11.182;2022-08-05T12:44:43;35.10;31.10
11538;DHT22;50159;49.426;11.182;2022-08-05T12:47:13;35.40;30.00
11538;DHT22;50159;49.426;11.182;2022-08-05T12:49:54;35.50;29.90
11538;DHT22;50159;49.426;11.182;2022-08-05T12:52:32;35.70;30.30
11538;DHT22;50159;49.426;11.182;2022-08-05T12:55:22;36.00;30.00
11538;DHT22;50159;49.426;11.182;2022-08-05T12:57:53;36.10;29.90
11538;DHT22;50159;49.426;11.182;2022-08-05T13:00:44;36.10;29.50
11538;DHT22;50159;49.426;11.182;2022-08-05T13:03:35;36.20;29.30
11538;DHT22;50159;49.426;11.182;2022-08-05T13:06:17;36.30;29.70
11538;DHT22;50159;49.426;11.182;2022-08-05T13:08:46;36.40;30.00
11538;DHT22;50159;49.426;11.182;2022-08-05T13:11:27;36.40;29.20
11538;DHT22;50159;49.426;11.182;2022-08-05T13:14:18;36.50;29.60
11538;DHT22;50159;49.426;11.182;2022-08-05T13:20:14;36.80;29.50
11538;DHT22;50159;49.426;11.182;2022-08-05T13:22:51;37.00;29.20
11538;DHT22;50159;49.426;11.182;2022-08-05T13:25:19;37.20;28.90
11538;DHT22;50159;49.426;11.182;2022-08-05T13:28:06;37.40;28.90
11538;DHT22;50159;49.426;11.182;2022-08-05T13:30:36;37.30;28.20
11538;DHT22;50159;49.426;11.182;2022-08-05T13:33:04;37.30;28.80
11538;DHT22;50159;49.426;11.182;2022-08-05T13:35:31;37.30;28.70
11538;DHT22;50159;49.426;11.182;2022-08-05T13:38:18;37.30;28.70
11538;DHT22;50159;49.426;11.182;2022-08-05T13:41:01;37.20;28.30
11538;DHT22;50159;49.426;11.182;2022-08-05T13:43:29;37.10;28.00
11538;DHT22;50159;49.426;11.182;2022-08-05T13:46:16;37.00;28.50
11538;DHT22;50159;49.426;11.182;2022-08-05T13:49:02;36.60;28.50
11538;DHT22;50159;49.426;11.182;2022-08-05T13:51:31;36.60;29.00
11538;DHT22;50159;49.426;11.182;2022-08-05T13:54:06;36.90;28.80
11538;DHT22;50159;49.426;11.182;2022-08-05T13:56:39;37.00;29.00
11538;DHT22;50159;49.426;11.182;2022-08-05T13:59:23;37.20;28.50
11538;DHT22;50159;49.426;11.182;2022-08-05T14:01:54;37.30;28.40
11538;DHT22;50159;49.426;11.182;2022-08-05T14:04:36;37.40;28.70
11538;DHT22;50159;49.426;11.182;2022-08-05T14:07:33;37.50;28.50
11538;DHT22;50159;49.426;11.182;2022-08-05T14:10:23;37.50;28.50
11538;DHT22;50159;49.426;11.182;2022-08-05T14:12:56;37.40;28.50
11538;DHT22;50159;49.426;11.182;2022-08-05T14:15:24;37.00;30.90
11538;DHT22;50159;49.426;11.182;2022-08-05T14:18:12;36.50;31.20
11538;DHT22;50159;49.426;11.182;2022-08-05T14:20:45;36.50;29.30
11538;DHT22;50159;49.426;11.182;2022-08-05T14:23:15;36.90;30.60
11538;DHT22;50159;49.426;11.182;2022-08-05T14:25:55;37.10;29.10
11538;DHT22;50159;49.426;11.182;2022-08-05T14:28:25;37.30;29.20
11538;DHT22;50159;49.426;11.182;2022-08-05T14:30:54;36.90;29.00
11538;DHT22;50159;49.426;11.182;2022-08-05T14:33:22;36.90;29.30
11538;DHT22;50159;49.426;11.182;2022-08-05T14:35:50;38.10;29.90
11538;DHT22;50159;49.426;11.182;2022-08-05T14:38:23;37.80;29.00
11538;DHT22;50159;49.426;11.182;2022-08-05T14:40:58;38.30;34.00
11538;DHT22;50159;49.426;11.182;2022-08-05T14:43:26;38.50;27.40
11538;DHT22;50159;49.426;11.182;2022-08-05T14:46:12;38.70;26.80
11538;DHT22;50159;49.426;11.182;2022-08-05T14:48:39;38.00;27.20
11538;DHT22;50159;49.426;11.182;2022-08-05T14:51:07;37.90;28.00
11538;DHT22;50159;49.426;11.182;2022-08-05T14:53:34;38.80;26.80
11538;DHT22;50159;49.426;11.182;2022-08-05T14:56:10;39.00;26.40
11538;DHT22;50159;49.426;11.182;2022-08-05T14:58:39;38.30;26.90
11538;DHT22;50159;49.426;11.182;2022-08-05T15:01:19;37.50;27.70
11538;DHT22;50159;49.426;11.182;2022-08-05T15:04:06;36.50;28.30
11538;DHT22;50159;49.426;11.182;2022-08-05T15:06:37;35.70;29.40
11538;DHT22;50159;49.426;11.182;2022-08-05T15:09:06;35.20;30.30
11538;DHT22;50159;49.426;11.182;2022-08-05T15:11:33;34.80;31.10
11538;DHT22;50159;49.426;11.182;2022-08-05T15:14:19;34.70;31.20
11538;DHT22;50159;49.426;11.182;2022-08-05T15:17:07;34.70;31.20
11538;DHT22;50159;49.426;11.182;2022-08-05T15:19:58;34.60;31.60
11538;DHT22;50159;49.426;11.182;2022-08-05T15:22:24;35.10;31.00
11538;DHT22;50159;49.426;11.182;2022-08-05T15:24:54;35.50;29.90
11538;DHT22;50159;49.426;11.182;2022-08-05T15:27:22;35.70;30.00
11538;DHT22;50159;49.426;11.182;2022-08-05T15:29:52;36.00;29.70
11538;DHT22;50159;49.426;11.182;2022-08-05T15:32:23;36.10;29.60
11538;DHT22;50159;49.426;11.182;2022-08-05T15:34:54;36.00;29.50
11538;DHT22;50159;49.426;11.182;2022-08-05T15:37:23;36.00;29.40
11538;DHT22;50159;49.426;11.182;2022-08-05T15:40:10;35.70;29.30
11538;DHT22;50159;49.426;11.182;2022-08-05T15:42:57;35.50;29.50
11538;DHT22;50159;49.426;11.182;2022-08-05T15:45:34;35.40;29.80
11538;DHT22;50159;49.426;11.182;2022-08-05T15:48:04;35.30;30.30
11538;DHT22;50159;49.426;11.182;2022-08-05T15:50:32;35.30;30.40
11538;DHT22;50159;49.426;11.182;2022-08-05T15:53:00;35.40;31.00
11538;DHT22;50159;49.426;11.182;2022-08-05T15:55:31;35.20;31.30
11538;DHT22;50159;49.426;11.182;2022-08-05T15:58:18;35.10;31.90
11538;DHT22;50159;49.426;11.182;2022-08-05T16:00:48;34.90;32.50
11538;DHT22;50159;49.426;11.182;2022-08-05T16:03:29;34.80;32.20
11538;DHT22;50159;49.426;11.182;2022-08-05T16:05:59;34.80;32.50
11538;DHT22;50159;49.426;11.182;2022-08-05T16:08:27;34.70;32.20
11538;DHT22;50159;49.426;11.182;2022-08-05T16:10:56;34.80;31.90
11538;DHT22;50159;49.426;11.182;2022-08-05T16:13:24;34.90;31.90
11538;DHT22;50159;49.426;11.182;2022-08-05T16:16:00;34.90;31.00
11538;DHT22;50159;49.426;11.182;2022-08-05T16:18:29;34.90;31.00
11538;DHT22;50159;49.426;11.182;2022-08-05T16:20:58;34.70;31.30
11538;DHT22;50159;49.426;11.182;2022-08-05T16:23:31;34.40;31.70
11538;DHT22;50159;49.426;11.182;2022-08-05T16:26:18;33.90;32.30
11538;DHT22;50159;49.426;11.182;2022-08-05T16:28:52;33.50;33.10
11538;DHT22;50159;49.426;11.182;2022-08-05T16:31:20;33.30;33.80
11538;DHT22;50159;49.426;11.182;2022-08-05T16:33:48;33.20;33.90
11538;DHT22;50159;49.426;11.182;2022-08-05T16:36:15;33.20;34.20
11538;DHT22;50159;49.426;11.182;2022-08-05T16:38:49;33.20;34.60
11538;DHT22;50159;49.426;11.182;2022-08-05T16:41:21;33.10;34.40
11538;DHT22;50159;49.426;11.182;2022-08-05T16:44:10;33.10;34.80
11538;DHT22;50159;49.426;11.182;2022-08-05T16:46:39;33.00;34.80
11538;DHT22;50159;49.426;11.182;2022-08-05T16:49:21;32.90;35.10
11538;DHT22;50159;49.426;11.182;2022-08-05T16:51:48;32.70;35.50
11538;DHT22;50159;49.426;11.182;2022-08-05T16:54:20;32.60;35.90